Time;durP1;ratioP1;P1;durP2;ratioP2;P2;SDS_P1;SDS_P2;PMS_P1;PMS_P2;Temp;Humidity;BMP_temperature;BMP_pressure;BME280_temperature;BME280_humidity;BME280_pressure;Samples;Min_cycle;Max_cycle;Signal;HPM_P1;HPM_P2
2022/10/09 00:01:46;;;;;;;2.67;0.73;;;10.50;99.90;;;;;;6253109;22;20015;-89
2022/10/09 00:04:12;;;;;;;2.13;0.90;;;10.60;99.90;;;;;;6228950;22;20015;-88
2022/10/09 00:06:38;;;;;;;2.73;0.70;;;10.60;99.90;;;;;;6227870;22;20047;-88
2022/10/09 00:09:04;;;;;;;3.08;0.90;;;10.60;99.90;;;;;;6203135;22;20089;-89
2022/10/09 00:11:31;;;;;;;3.67;1.00;;;10.60;99.90;;;;;;6227721;22;20011;-87
2022/10/09 00:13:57;;;;;;;4.85;0.95;;;10.60;99.90;;;;;;6279713;22;20043;-88
2022/10/09 00:16:24;;;;;;;2.78;0.90;;;10.60;99.90;;;;;;6255943;22;20019;-87
2022/10/09 00:18:50;;;;;;;;;;;10.60;99.90;;;;;;6256400;22;20023;-87
2022/10/09 00:21:26;;;;;;;3.95;0.90;;;10.60;99.90;;;;;;6281368;22;19922;-88
2022/10/09 00:23:56;;;;;;;1.73;0.63;;;10.60;99.90;;;;;;6255764;22;20468;-88
2022/10/09 00:26:22;;;;;;;2.72;0.73;;;10.60;99.90;;;;;;6255480;22;20013;-89
2022/10/09 00:28:48;;;;;;;2.95;0.90;;;10.50;99.90;;;;;;6254898;22;20015;-87
2022/10/09 00:31:15;;;;;;;3.47;0.80;;;10.50;99.90;;;;;;6255160;22;20073;-87
2022/10/09 00:33:41;;;;;;;3.80;1.05;;;10.40;99.90;;;;;;6254341;22;20254;-87
2022/10/09 00:36:13;;;;;;;2.08;0.70;;;10.40;99.90;;;;;;6255855;22;20023;-88
2022/10/09 00:38:39;;;;;;;2.33;0.70;;;10.30;99.90;;;;;;6255816;22;20081;-87
2022/10/09 00:41:06;;;;;;;3.53;0.90;;;10.20;99.90;;;;;;6233963;22;20026;-88
2022/10/09 00:43:49;;;;;;;4.85;1.02;;;10.20;99.90;;;;;;6282412;22;20015;-87
2022/10/09 00:46:24;;;;;;;5.45;1.15;;;10.20;99.90;;;;;;6261705;22;20101;-88
2022/10/09 00:52:04;;;;;;;4.30;0.90;;;10.20;99.90;;;;;;6297507;22;20051;-90
2022/10/09 00:54:35;;;;;;;3.15;0.70;;;10.20;99.90;;;;;;6256418;22;20149;-90
2022/10/09 00:57:01;;;;;;;3.85;0.98;;;10.20;99.90;;;;;;6256475;22;20069;-92
2022/10/09 00:59:27;;;;;;;3.15;1.08;;;10.30;99.90;;;;;;6255077;22;20053;-90
2022/10/09 01:01:53;;;;;;;1.55;0.70;;;10.30;99.90;;;;;;6254143;22;20015;-92
2022/10/09 01:04:18;;;;;;;2.13;0.90;;;10.40;99.90;;;;;;6228942;22;20026;-92
2022/10/09 01:07:41;;;;;;;;;;;;;;;;;;;;;
2022/10/09 01:10:38;;;;;;;2.80;0.85;;;10.30;99.90;;;;;;6229350;22;20037;-90
2022/10/09 01:14:18;;;;;;;2.72;0.80;;;10.40;99.90;;;;;;6254576;22;20019;-92
2022/10/09 01:16:55;;;;;;;2.10;0.73;;;10.40;99.90;;;;;;6104901;23;20040;-92
2022/10/09 01:20:04;;;;;;;2.92;0.57;;;10.30;99.90;;;;;;6083667;23;20017;-93
2022/10/09 01:27:06;;;;;;;1.85;0.65;;;10.40;99.90;;;;;;6306796;22;20068;-91
2022/10/09 01:29:41;;;;;;;3.03;0.83;;;10.40;99.90;;;;;;6253989;22;20026;-90
2022/10/09 01:32:41;;;;;;;3.67;0.68;;;10.30;99.90;;;;;;6278024;22;20022;-92
2022/10/09 01:35:08;;;;;;;2.83;0.68;;;10.30;99.90;;;;;;6245504;22;20023;-93
2022/10/09 01:37:52;;;;;;;7.90;0.77;;;10.30;99.90;;;;;;6252181;22;20303;-92
2022/10/09 01:40:18;;;;;;;2.60;0.60;;;10.30;99.90;;;;;;6276953;22;20015;-93
2022/10/09 01:42:45;;;;;;;2.58;0.65;;;10.30;99.90;;;;;;6253907;22;20015;-92
2022/10/09 01:45:13;;;;;;;1.40;0.70;;;10.30;99.90;;;;;;6253666;22;20436;-93
2022/10/09 01:47:38;;;;;;;1.70;0.50;;;10.30;99.90;;;;;;6254182;22;20523;-90
2022/10/09 01:50:17;;;;;;;3.40;0.50;;;10.30;99.90;;;;;;6255415;22;20049;-92
2022/10/09 01:52:50;;;;;;;3.20;1.00;;;10.30;99.90;;;;;;6255749;22;20055;-92
2022/10/09 01:55:27;;;;;;;1.83;0.60;;;10.30;99.90;;;;;;6256028;22;20513;-91
2022/10/09 01:58:08;;;;;;;2.22;0.73;;;10.30;99.90;;;;;;6254234;22;20440;-92
2022/10/09 02:00:46;;;;;;;2.67;0.80;;;10.30;99.90;;;;;;6255344;22;20022;-92
2022/10/09 02:03:15;;;;;;;2.88;0.60;;;10.20;99.90;;;;;;6254879;22;20019;-91
2022/10/09 02:05:42;;;;;;;2.03;0.57;;;10.20;99.90;;;;;;6256358;22;20011;-91
2022/10/09 02:08:24;;;;;;;2.63;0.70;;;10.20;99.90;;;;;;6257406;22;20022;-92
2022/10/09 02:10:54;;;;;;;2.03;0.80;;;10.20;99.90;;;;;;6254362;22;20023;-89
2022/10/09 02:13:20;;;;;;;1.42;0.55;;;10.10;99.90;;;;;;6255107;22;20015;-92
2022/10/09 02:16:24;;;;;;;;;;;;;;;;;;;;;
2022/10/09 02:19:29;;;;;;;2.33;0.82;;;9.80;99.90;;;;;;6287008;22;20449;-90
2022/10/09 02:22:23;;;;;;;;;;;;;;;;;;;;;
2022/10/09 02:25:02;;;;;;;2.72;0.52;;;9.60;99.90;;;;;;6280877;22;20088;-89
2022/10/09 02:27:28;;;;;;;1.45;0.60;;;9.60;99.90;;;;;;6254768;22;20057;-90
2022/10/09 02:29:54;;;;;;;3.15;0.65;;;9.50;99.90;;;;;;6255285;22;20022;-90
2022/10/09 02:32:20;;;;;;;2.75;0.88;;;9.40;99.90;;;;;;6255308;22;20340;-89
2022/10/09 02:35:19;;;;;;;1.83;0.70;;;9.40;99.90;;;;;;6255325;22;20057;-91
2022/10/09 02:39:06;;;;;;;5.63;0.77;;;9.40;99.90;;;;;;6243034;22;20089;-89
2022/10/09 02:41:33;;;;;;;2.63;0.60;;;9.30;99.90;;;;;;6274474;22;20026;-90
2022/10/09 02:43:58;;;;;;;1.65;0.70;;;9.30;99.90;;;;;;6269381;22;20015;-90
2022/10/09 02:49:35;;;;;;;1.20;0.60;;;9.30;99.90;;;;;;6202537;23;20021;-90
2022/10/09 02:52:00;;;;;;;1.53;0.60;;;9.30;99.90;;;;;;6193540;23;20352;-93
2022/10/09 02:57:42;;;;;;;2.13;0.70;;;9.30;99.90;;;;;;6211762;23;20038;-91
2022/10/09 03:00:08;;;;;;;3.15;1.00;;;9.30;99.90;;;;;;6215762;23;20520;-91
2022/10/09 03:02:47;;;;;;;2.08;0.80;;;9.30;99.90;;;;;;6190914;23;20023;-91
2022/10/09 03:05:37;;;;;;;3.35;0.75;;;9.30;99.90;;;;;;6165914;23;20020;-91
2022/10/09 03:08:03;;;;;;;1.35;0.43;;;9.40;99.90;;;;;;6170203;23;20024;-91
2022/10/09 03:10:52;;;;;;;1.47;0.50;;;9.30;99.90;;;;;;6192306;23;20016;-91
2022/10/09 03:13:17;;;;;;;1.30;0.60;;;9.30;99.90;;;;;;6175476;23;20075;-89
2022/10/09 03:15:43;;;;;;;3.00;1.47;;;9.20;99.90;;;;;;6193308;23;20012;-91
2022/10/09 03:18:09;;;;;;;1.57;0.60;;;9.20;99.90;;;;;;6192130;23;20099;-92
2022/10/09 03:20:34;;;;;;;2.13;0.90;;;9.20;99.90;;;;;;6199817;22;20019;-92
2022/10/09 03:23:15;;;;;;;1.70;0.73;;;9.20;99.90;;;;;;6255904;22;20007;-91
2022/10/09 03:25:41;;;;;;;1.75;0.60;;;9.20;99.90;;;;;;6228430;22;20019;-92
2022/10/09 03:28:07;;;;;;;2.60;0.87;;;9.20;99.90;;;;;;6254695;22;20019;-92
2022/10/09 03:30:33;;;;;;;1.83;0.60;;;9.20;99.90;;;;;;6230253;22;20014;-92
2022/10/09 03:32:58;;;;;;;1.07;0.60;;;9.10;99.90;;;;;;6229926;22;20018;-92
2022/10/09 03:35:24;;;;;;;2.60;0.90;;;9.10;99.90;;;;;;6230181;22;20042;-91
2022/10/09 03:37:50;;;;;;;2.50;0.70;;;9.00;99.90;;;;;;6204930;22;20015;-91
2022/10/09 03:40:15;;;;;;;1.73;0.63;;;9.00;99.90;;;;;;6255334;22;20153;-91
2022/10/09 03:42:41;;;;;;;2.73;0.53;;;9.00;99.90;;;;;;6205283;22;20011;-92
2022/10/09 03:45:07;;;;;;;2.27;0.70;;;8.90;99.90;;;;;;6205121;22;20011;-92
2022/10/09 03:47:33;;;;;;;1.60;0.70;;;8.90;99.90;;;;;;6230119;22;20020;-92
2022/10/09 03:49:59;;;;;;;2.57;0.93;;;8.80;99.90;;;;;;6207009;22;20103;-92
2022/10/09 03:52:24;;;;;;;1.90;0.80;;;8.70;99.90;;;;;;6176952;22;20345;-92
2022/10/09 03:54:50;;;;;;;1.57;0.60;;;8.70;99.90;;;;;;6226916;22;20081;-91
2022/10/09 03:57:16;;;;;;;1.63;0.77;;;8.70;99.90;;;;;;6201762;22;20034;-91
2022/10/09 03:59:43;;;;;;;1.93;0.73;;;8.60;99.90;;;;;;6226315;22;20449;-90
2022/10/09 04:02:08;;;;;;;;;;;8.60;99.90;;;;;;6201288;22;20016;-92
2022/10/09 04:04:34;;;;;;;2.45;0.60;;;8.50;99.90;;;;;;6227328;22;20288;-91
2022/10/09 04:07:00;;;;;;;4.17;0.87;;;8.50;99.90;;;;;;6240451;22;20020;-89
2022/10/09 04:09:26;;;;;;;2.07;0.90;;;8.50;99.90;;;;;;6229605;22;20250;-91
2022/10/09 04:11:51;;;;;;;2.33;0.97;;;8.50;99.90;;;;;;6199491;22;20023;-92
2022/10/09 04:14:17;;;;;;;3.10;0.80;;;8.50;99.90;;;;;;6201371;22;20020;-91
2022/10/09 04:16:43;;;;;;;3.37;1.00;;;8.50;99.90;;;;;;6226343;22;20012;-91
2022/10/09 04:19:08;;;;;;;2.30;1.10;;;8.50;99.90;;;;;;6201309;22;20016;-91
2022/10/09 04:21:34;;;;;;;2.70;0.90;;;8.50;99.90;;;;;;6201275;22;20012;-90
2022/10/09 04:24:02;;;;;;;3.37;0.93;;;8.50;99.90;;;;;;6200836;22;20054;-92
2022/10/09 04:26:28;;;;;;;3.88;1.20;;;8.50;99.90;;;;;;6201587;22;20008;-93
2022/10/09 04:28:53;;;;;;;1.92;0.90;;;8.50;99.90;;;;;;6226461;22;20401;-91
2022/10/09 04:31:19;;;;;;;2.53;1.00;;;8.50;99.90;;;;;;6226246;22;20047;-91
2022/10/09 04:33:45;;;;;;;3.80;1.10;;;8.50;99.90;;;;;;6201223;22;20102;-92
2022/10/09 04:36:11;;;;;;;3.77;1.10;;;8.40;99.90;;;;;;6201048;22;20039;-91
2022/10/09 04:38:37;;;;;;;3.00;1.20;;;8.40;99.90;;;;;;6202260;22;20015;-92
2022/10/09 04:41:05;;;;;;;2.28;1.00;;;8.40;99.90;;;;;;6248671;22;20023;-89
2022/10/09 04:43:32;;;;;;;2.95;1.48;;;8.30;99.90;;;;;;6240049;22;20073;-91
2022/10/09 04:46:02;;;;;;;4.82;1.20;;;8.30;99.90;;;;;;6226183;22;20037;-92
2022/10/09 04:48:27;;;;;;;4.25;1.20;;;8.30;99.90;;;;;;6225795;22;20016;-92
2022/10/09 04:50:53;;;;;;;2.97;1.30;;;8.20;99.90;;;;;;6237137;22;20019;-92
2022/10/09 04:53:19;;;;;;;2.90;1.70;;;8.30;99.90;;;;;;6255948;22;20093;-93
2022/10/09 04:56:10;;;;;;;5.22;1.50;;;8.30;99.90;;;;;;6269749;22;20042;-89
2022/10/09 04:58:38;;;;;;;2.95;1.35;;;8.30;99.90;;;;;;6276551;22;20016;-87
2022/10/09 05:01:23;;;;;;;3.70;1.45;;;8.30;99.90;;;;;;6275873;22;20026;-89
2022/10/09 05:03:50;;;;;;;3.38;1.38;;;8.30;99.90;;;;;;6229918;22;20322;-87
2022/10/09 05:17:17;;;;;;;4.10;1.63;;;8.00;99.90;;;;;;6246548;23;20024;-92
2022/10/09 05:19:44;;;;;;;3.50;1.50;;;8.00;99.90;;;;;;6195416;23;20031;-89
2022/10/09 05:22:10;;;;;;;4.03;1.60;;;8.00;99.90;;;;;;6196849;23;20066;-89
2022/10/09 05:24:35;;;;;;;4.17;1.43;;;8.00;99.90;;;;;;6197614;23;20028;-89
2022/10/09 05:27:01;;;;;;;3.17;1.50;;;8.00;99.90;;;;;;6221288;23;20019;-89
2022/10/09 05:29:28;;;;;;;3.03;1.30;;;8.10;99.90;;;;;;6196206;23;20055;-88
2022/10/09 05:31:53;;;;;;;3.72;1.52;;;8.10;99.90;;;;;;6198622;23;20724;-88
2022/10/09 05:34:29;;;;;;;4.90;1.30;;;8.10;99.90;;;;;;6198611;23;20043;-90
2022/10/09 05:36:58;;;;;;;4.05;1.65;;;8.10;99.90;;;;;;6174275;23;20472;-91
2022/10/09 05:39:26;;;;;;;4.20;1.70;;;8.10;99.90;;;;;;6196811;23;20504;-88
2022/10/09 05:41:55;;;;;;;3.80;1.63;;;8.10;99.90;;;;;;6171445;23;20016;-90
2022/10/09 05:44:24;;;;;;;3.67;1.45;;;8.10;99.90;;;;;;6195975;23;20017;-91
2022/10/09 05:46:54;;;;;;;5.30;1.60;;;8.00;99.90;;;;;;6194941;23;20455;-90
2022/10/09 05:49:20;;;;;;;4.47;1.92;;;7.90;99.90;;;;;;6193905;23;20094;-89
2022/10/09 05:51:46;;;;;;;5.35;1.60;;;7.90;99.90;;;;;;6193400;23;20098;-89
2022/10/09 05:54:14;;;;;;;4.47;1.60;;;7.80;99.90;;;;;;6168308;23;20020;-88
2022/10/09 05:56:41;;;;;;;4.75;2.20;;;7.80;99.90;;;;;;6193821;23;20023;-88
2022/10/09 05:59:13;;;;;;;3.22;1.55;;;7.70;99.90;;;;;;6195825;23;20085;-89
2022/10/09 06:01:42;;;;;;;5.70;1.80;;;7.70;99.90;;;;;;6219919;23;20016;-89
2022/10/09 06:04:13;;;;;;;4.30;1.70;;;7.70;99.90;;;;;;6194846;23;20097;-91
2022/10/09 06:06:40;;;;;;;4.78;1.77;;;7.60;99.90;;;;;;6195292;23;20096;-89
2022/10/09 06:09:07;;;;;;;6.28;2.45;;;7.60;99.90;;;;;;6170535;23;20019;-90
2022/10/09 06:11:35;;;;;;;6.43;2.50;;;7.60;99.90;;;;;;6194349;23;20016;-90
2022/10/09 06:14:03;;;;;;;4.00;1.83;;;7.50;99.90;;;;;;6194910;23;20090;-88
2022/10/09 06:16:35;;;;;;;4.00;1.98;;;7.50;99.90;;;;;;6169233;23;20034;-89
2022/10/09 06:19:02;;;;;;;4.10;1.80;;;7.40;99.90;;;;;;6195103;23;20012;-90
2022/10/09 06:21:28;;;;;;;3.75;1.75;;;7.40;99.90;;;;;;6193675;23;20020;-90
2022/10/09 06:23:56;;;;;;;4.47;2.10;;;7.40;99.90;;;;;;6192661;23;20016;-90
2022/10/09 06:26:23;;;;;;;5.57;2.17;;;7.40;99.90;;;;;;6217551;23;20020;-91
2022/10/09 06:28:48;;;;;;;;;;;7.50;99.90;;;;;;6143750;23;20020;-89
2022/10/09 06:31:18;;;;;;;7.30;2.10;;;7.50;99.90;;;;;;6192486;23;19989;-89
2022/10/09 06:33:44;;;;;;;6.38;2.00;;;7.50;99.90;;;;;;6218017;23;20095;-90
2022/10/09 06:36:14;;;;;;;;;;;7.50;99.90;;;;;;6245262;23;20023;-90
2022/10/09 06:38:41;;;;;;;4.40;2.10;;;7.50;99.90;;;;;;6195028;23;19915;-90
2022/10/09 06:41:13;;;;;;;6.13;2.22;;;7.60;99.90;;;;;;6194804;23;20104;-89
2022/10/09 06:44:04;;;;;;;6.30;2.15;;;7.60;99.90;;;;;;6194158;23;20430;-89
2022/10/09 06:46:40;;;;;;;4.15;2.13;;;7.60;99.90;;;;;;6210609;23;20052;-89
2022/10/09 06:49:08;;;;;;;5.88;2.00;;;7.70;99.90;;;;;;6202031;23;20454;-86
2022/10/09 06:51:35;;;;;;;3.75;1.73;;;7.80;99.90;;;;;;6196948;23;20016;-88
2022/10/09 06:54:07;;;;;;;4.20;2.00;;;7.80;99.90;;;;;;6192956;23;20024;-89
2022/10/09 06:56:41;;;;;;;5.80;2.47;;;8.00;99.90;;;;;;6229679;22;20062;-87
2022/10/09 06:59:07;;;;;;;4.10;1.92;;;8.00;99.90;;;;;;6224063;22;20024;-87
2022/10/09 07:01:33;;;;;;;5.28;2.13;;;8.20;99.90;;;;;;6249478;22;20094;-87
2022/10/09 07:04:09;;;;;;;6.60;2.28;;;8.20;99.90;;;;;;6249126;22;20468;-88
2022/10/09 07:06:41;;;;;;;5.45;2.38;;;8.30;99.90;;;;;;6221697;22;20020;-87
2022/10/09 07:09:10;;;;;;;4.50;2.20;;;8.40;99.90;;;;;;6248150;22;20020;-89
2022/10/09 07:11:42;;;;;;;5.95;2.28;;;8.50;99.90;;;;;;6249299;22;20035;-88
2022/10/09 07:14:12;;;;;;;4.20;1.92;;;8.50;99.90;;;;;;6249032;22;20018;-87
2022/10/09 07:16:43;;;;;;;6.70;2.65;;;8.60;99.90;;;;;;6247172;22;20019;-87
2022/10/09 07:19:11;;;;;;;5.75;2.55;;;8.70;99.90;;;;;;6248230;22;20051;-86
2022/10/09 07:21:39;;;;;;;6.10;3.00;;;8.70;99.90;;;;;;6247484;22;20496;-85
2022/10/09 07:24:05;;;;;;;6.25;2.90;;;8.80;99.90;;;;;;6280659;22;20086;-85
2022/10/09 07:26:33;;;;;;;8.95;3.30;;;8.90;99.90;;;;;;6253679;22;20026;-85
2022/10/09 07:28:59;;;;;;;6.15;3.35;;;8.90;99.90;;;;;;6226325;22;20398;-86
2022/10/09 07:31:25;;;;;;;6.67;3.37;;;8.90;99.90;;;;;;6225806;22;20069;-86
2022/10/09 07:33:54;;;;;;;7.50;4.00;;;9.00;99.90;;;;;;6225426;22;20315;-85
2022/10/09 07:36:20;;;;;;;8.77;4.18;;;9.00;99.90;;;;;;6250839;22;20082;-86
2022/10/09 07:38:51;;;;;;;10.00;4.80;;;9.10;99.90;;;;;;6225541;22;20020;-86
2022/10/09 07:41:17;;;;;;;10.35;4.88;;;9.10;99.90;;;;;;6225235;22;20019;-87
2022/10/09 07:43:43;;;;;;;14.93;5.57;;;9.20;99.90;;;;;;6277961;22;20047;-87
2022/10/09 07:46:18;;;;;;;11.50;4.67;;;9.20;99.90;;;;;;6225495;22;20016;-86
2022/10/09 07:48:44;;;;;;;8.85;4.50;;;9.30;99.90;;;;;;6225367;22;20274;-86
2022/10/09 07:51:20;;;;;;;8.93;3.78;;;9.30;99.90;;;;;;6225133;22;20027;-86
2022/10/09 07:53:46;;;;;;;7.72;3.67;;;9.40;99.90;;;;;;6225336;22;20460;-86
2022/10/09 07:56:20;;;;;;;7.88;3.38;;;9.50;99.90;;;;;;6224956;22;20094;-86
2022/10/09 07:58:56;;;;;;;7.80;3.47;;;9.50;99.90;;;;;;6275263;22;20031;-86
2022/10/09 08:01:23;;;;;;;5.65;2.90;;;9.50;99.90;;;;;;6225634;22;20480;-87
2022/10/09 08:03:49;;;;;;;;;;;9.50;99.90;;;;;;6225588;22;20019;-86
2022/10/09 08:06:15;;;;;;;5.30;2.60;;;9.60;99.90;;;;;;6250541;22;20244;-86
2022/10/09 08:08:41;;;;;;;7.10;2.20;;;9.60;99.90;;;;;;6225310;22;20019;-87
2022/10/09 08:11:08;;;;;;;;;;;9.70;99.90;;;;;;6251379;22;20016;-87
2022/10/09 08:13:34;;;;;;;6.50;2.15;;;9.70;99.90;;;;;;6225463;22;19945;-86
2022/10/09 08:16:00;;;;;;;5.15;2.05;;;9.80;99.90;;;;;;6199981;22;20073;-87
2022/10/09 08:18:26;;;;;;;4.33;1.93;;;9.80;99.90;;;;;;6225922;22;20090;-86
2022/10/09 08:21:32;;;;;;;3.53;1.40;;;9.90;99.90;;;;;;6225697;22;20023;-87
2022/10/09 08:23:59;;;;;;;5.63;1.65;;;9.90;99.90;;;;;;6136848;22;20012;-86
2022/10/09 08:26:27;;;;;;;;;;;10.00;99.90;;;;;;6225580;22;20022;-86
2022/10/09 08:28:58;;;;;;;2.95;1.45;;;10.00;99.90;;;;;;6225221;22;20325;-86
2022/10/09 08:31:26;;;;;;;6.28;1.77;;;10.10;99.90;;;;;;6277588;22;20016;-87
2022/10/09 08:33:53;;;;;;;2.95;1.38;;;10.20;99.90;;;;;;6277203;22;20047;-87
2022/10/09 08:36:20;;;;;;;3.55;1.38;;;10.20;99.90;;;;;;6225169;22;20458;-87
2022/10/09 08:38:49;;;;;;;3.10;1.42;;;10.30;99.90;;;;;;6224764;22;20016;-88
2022/10/09 08:41:31;;;;;;;5.25;1.80;;;10.30;99.90;;;;;;6224343;22;20024;-89
2022/10/09 08:44:08;;;;;;;5.88;1.40;;;10.40;99.90;;;;;;6224490;22;20051;-89
2022/10/09 08:46:41;;;;;;;3.90;1.33;;;10.40;99.90;;;;;;6225383;22;20015;-89
2022/10/09 08:49:21;;;;;;;4.35;1.00;;;10.50;99.90;;;;;;6225628;22;20047;-88
2022/10/09 08:51:50;;;;;;;2.88;1.33;;;10.50;99.90;;;;;;6250268;22;20050;-91
2022/10/09 08:54:37;;;;;;;3.70;1.50;;;10.60;99.90;;;;;;6250985;22;20043;-88
2022/10/09 08:57:08;;;;;;;5.15;1.40;;;10.60;99.90;;;;;;6225310;22;20047;-90
2022/10/09 08:59:35;;;;;;;3.40;1.30;;;10.70;99.90;;;;;;6224708;22;20024;-89
2022/10/09 09:02:26;;;;;;;4.50;1.50;;;10.80;99.90;;;;;;6224490;22;20400;-89
2022/10/09 09:04:58;;;;;;;2.63;0.85;;;10.90;99.90;;;;;;6181775;22;20314;-88
2022/10/09 09:07:40;;;;;;;3.55;1.30;;;11.00;99.90;;;;;;6223102;22;20451;-90
2022/10/09 09:10:19;;;;;;;2.95;1.10;;;11.00;99.90;;;;;;6223758;22;20012;-90
2022/10/09 09:12:57;;;;;;;3.65;1.05;;;11.10;99.90;;;;;;6225257;22;20022;-89
2022/10/09 09:15:46;;;;;;;3.60;0.98;;;11.20;99.90;;;;;;6225010;22;20012;-90
2022/10/09 09:18:36;;;;;;;2.78;1.10;;;11.20;99.90;;;;;;6225060;22;20027;-90
2022/10/09 09:21:14;;;;;;;2.70;1.10;;;11.20;99.90;;;;;;6225016;22;20047;-89
2022/10/09 09:23:45;;;;;;;3.35;1.00;;;11.30;99.90;;;;;;6224900;22;20029;-89
2022/10/09 09:26:20;;;;;;;3.80;0.80;;;11.40;99.90;;;;;;6225104;22;20012;-89
2022/10/09 09:28:49;;;;;;;2.47;0.90;;;11.40;99.90;;;;;;6239276;22;20003;-87
2022/10/09 09:31:36;;;;;;;2.28;0.80;;;11.50;99.90;;;;;;6241685;22;20090;-88
2022/10/09 09:34:10;;;;;;;2.65;0.90;;;11.60;99.90;;;;;;6251462;22;20062;-88
2022/10/09 09:36:46;;;;;;;2.42;0.70;;;11.60;99.90;;;;;;6224693;22;20099;-88
2022/10/09 09:39:13;;;;;;;5.40;0.88;;;11.70;99.90;;;;;;6223571;22;20011;-89
2022/10/09 09:41:41;;;;;;;3.10;0.70;;;11.80;99.90;;;;;;6248575;22;20024;-89
2022/10/09 09:44:10;;;;;;;4.88;0.95;;;11.90;99.90;;;;;;6224547;22;20449;-87
2022/10/09 09:46:37;;;;;;;4.13;0.70;;;12.00;99.90;;;;;;6224418;22;20016;-89
2022/10/09 09:49:15;;;;;;;2.00;0.60;;;12.20;99.90;;;;;;6224727;22;20369;-89
2022/10/09 09:51:40;;;;;;;2.00;0.60;;;12.30;99.90;;;;;;6224706;22;20554;-88
2022/10/09 09:54:17;;;;;;;1.53;0.43;;;12.40;99.90;;;;;;6224408;22;20016;-88
2022/10/09 09:56:45;;;;;;;3.88;0.70;;;12.50;99.90;;;;;;6249780;22;20797;-90
2022/10/09 09:59:36;;;;;;;2.22;0.60;;;12.60;99.90;;;;;;6250013;22;20133;-91
2022/10/09 10:02:18;;;;;;;2.50;0.40;;;12.70;99.90;;;;;;6249674;22;20019;-88
2022/10/09 10:04:57;;;;;;;2.63;0.63;;;12.80;99.90;;;;;;6249626;22;20468;-90
2022/10/09 10:07:34;;;;;;;2.55;0.73;;;12.90;99.90;;;;;;6199428;22;20015;-89
2022/10/09 10:10:01;;;;;;;;;;;13.00;99.90;;;;;;6225141;22;20077;-89
2022/10/09 10:12:28;;;;;;;1.13;0.50;;;13.10;99.90;;;;;;6224689;22;19915;-92
2022/10/09 10:15:30;;;;;;;3.42;0.60;;;13.20;99.90;;;;;;6225915;22;20029;-91
2022/10/09 10:18:06;;;;;;;2.97;0.60;;;13.30;99.90;;;;;;6129338;23;20084;-89
2022/10/09 10:20:41;;;;;;;2.50;0.63;;;13.30;99.90;;;;;;6233591;22;20020;-89
2022/10/09 10:23:24;;;;;;;2.88;0.60;;;13.40;99.90;;;;;;6224841;22;20020;-89
2022/10/09 10:25:53;;;;;;;2.88;0.65;;;13.50;99.90;;;;;;6224721;22;20047;-88
2022/10/09 10:28:31;;;;;;;1.63;0.68;;;13.60;99.90;;;;;;6224409;22;20457;-89
2022/10/09 10:30:59;;;;;;;4.25;0.65;;;13.60;99.90;;;;;;6224771;22;20016;-88
2022/10/09 10:33:30;;;;;;;2.25;0.63;;;13.60;99.90;;;;;;6224851;22;20114;-89
2022/10/09 10:35:57;;;;;;;2.20;0.60;;;13.70;99.90;;;;;;6224337;22;20377;-88
2022/10/09 10:38:31;;;;;;;1.25;0.40;;;13.80;99.90;;;;;;6224659;22;20020;-88
2022/10/09 10:41:20;;;;;;;3.65;0.70;;;13.90;99.90;;;;;;6224609;22;20548;-89
2022/10/09 10:43:58;;;;;;;2.22;0.60;;;14.00;99.90;;;;;;6224739;22;20030;-88
2022/10/09 10:46:29;;;;;;;1.83;0.55;;;14.00;99.90;;;;;;6224589;22;20015;-90
2022/10/09 10:48:57;;;;;;;2.40;0.38;;;14.10;99.90;;;;;;6223307;22;20019;-89
2022/10/09 10:52:16;;;;;;;0.68;0.28;;;14.10;99.90;;;;;;6224384;22;20042;-89
2022/10/09 10:54:56;;;;;;;1.27;0.50;;;14.10;99.90;;;;;;6225043;22;20093;-88
2022/10/09 10:57:35;;;;;;;3.15;0.43;;;14.10;99.90;;;;;;6224899;22;20518;-89
2022/10/09 11:00:08;;;;;;;2.65;0.40;;;14.20;99.90;;;;;;6226094;22;20020;-89
2022/10/09 11:02:56;;;;;;;3.60;0.68;;;14.30;99.90;;;;;;6226432;22;20457;-89
2022/10/09 11:06:14;;;;;;;3.53;0.80;;;14.30;99.90;;;;;;6225947;22;20015;-87
2022/10/09 11:13:05;;;;;;;1.83;0.45;;;14.20;99.90;;;;;;6278418;22;20018;-87
2022/10/09 11:15:49;;;;;;;3.85;0.50;;;14.40;99.90;;;;;;6125521;23;20018;-88
2022/10/09 11:18:58;;;;;;;2.55;0.47;;;14.50;99.90;;;;;;6222885;22;20016;-88
2022/10/09 11:21:58;;;;;;;1.73;0.40;;;14.60;99.90;;;;;;6125029;23;20021;-88
2022/10/09 11:24:39;;;;;;;2.78;0.60;;;14.70;99.90;;;;;;6102436;23;20028;-89
2022/10/09 11:27:23;;;;;;;2.35;0.40;;;14.80;99.90;;;;;;6260852;22;20006;-87
2022/10/09 11:29:55;;;;;;;2.75;0.82;;;14.80;99.90;;;;;;6244288;22;20019;-88
2022/10/09 11:32:33;;;;;;;3.00;0.57;;;14.80;99.90;;;;;;6227884;22;20020;-88
2022/10/09 11:35:22;;;;;;;2.40;0.40;;;14.90;99.90;;;;;;6226925;22;20099;-88
2022/10/09 11:38:04;;;;;;;1.83;0.40;;;14.90;99.90;;;;;;6225545;22;20019;-89
2022/10/09 11:40:33;;;;;;;1.35;0.50;;;15.00;99.90;;;;;;6226389;22;20026;-88
2022/10/09 11:43:24;;;;;;;2.08;0.20;;;15.10;99.90;;;;;;6250664;22;20072;-89
2022/10/09 11:46:11;;;;;;;1.42;0.30;;;15.10;99.90;;;;;;6225684;22;20353;-89
2022/10/09 11:49:06;;;;;;;1.42;0.38;;;15.10;99.90;;;;;;6225998;22;20020;-88
2022/10/09 11:51:47;;;;;;;1.85;0.60;;;15.10;99.90;;;;;;6250643;22;20016;-88
2022/10/09 11:54:17;;;;;;;4.00;0.52;;;15.00;99.90;;;;;;6225781;22;20098;-88
2022/10/09 11:57:00;;;;;;;1.95;0.50;;;15.00;99.90;;;;;;6225565;22;20016;-87
2022/10/09 11:59:32;;;;;;;1.55;0.30;;;15.00;99.90;;;;;;6225616;22;20094;-88
2022/10/09 12:02:11;;;;;;;1.10;0.40;;;15.00;99.90;;;;;;6224948;22;20007;-88
2022/10/09 12:04:36;;;;;;;2.58;0.60;;;15.00;99.90;;;;;;6228273;22;20024;-87
2022/10/09 12:07:08;;;;;;;2.42;0.40;;;15.00;99.90;;;;;;6200385;22;20023;-88
2022/10/09 12:09:33;;;;;;;1.70;0.65;;;15.00;99.90;;;;;;6225007;22;20107;-87
2022/10/09 12:12:15;;;;;;;2.10;0.40;;;15.10;99.90;;;;;;6250805;22;20047;-88
2022/10/09 12:14:42;;;;;;;2.05;0.57;;;15.10;99.90;;;;;;6250526;22;20243;-88
2022/10/09 12:17:21;;;;;;;4.22;0.40;;;15.10;99.90;;;;;;6225594;22;20047;-87
2022/10/09 12:20:13;;;;;;;1.02;0.30;;;15.10;99.90;;;;;;6225690;22;20341;-88
2022/10/09 12:23:00;;;;;;;2.60;0.40;;;15.00;99.90;;;;;;6277938;22;20465;-87
2022/10/09 12:25:43;;;;;;;2.67;0.45;;;15.00;99.90;;;;;;6224896;22;20499;-88
2022/10/09 12:28:37;;;;;;;3.50;0.38;;;15.00;99.90;;;;;;6225551;22;20069;-86
2022/10/09 12:31:13;;;;;;;3.03;0.60;;;15.00;99.90;;;;;;6222153;22;20090;-89
2022/10/09 12:33:44;;;;;;;0.57;0.30;;;15.10;99.90;;;;;;6250933;22;20051;-90
2022/10/09 12:36:57;;;;;;;1.38;0.30;;;15.10;99.90;;;;;;6225177;22;20095;-89
2022/10/09 12:40:19;;;;;;;2.22;0.52;;;15.10;99.90;;;;;;6224938;22;20016;-86
2022/10/09 12:42:45;;;;;;;1.30;0.45;;;15.10;99.90;;;;;;6224306;22;20016;-87
2022/10/09 12:45:21;;;;;;;2.15;0.40;;;15.10;99.90;;;;;;6224533;22;20016;-86
2022/10/09 12:47:47;;;;;;;0.52;0.30;;;15.10;99.90;;;;;;6250058;22;20103;-87
2022/10/09 12:50:20;;;;;;;3.35;0.70;;;15.10;99.90;;;;;;6224976;22;20073;-87
2022/10/09 12:53:18;;;;;;;4.30;0.50;;;15.10;99.90;;;;;;6228430;22;20026;-89
2022/10/09 12:55:47;;;;;;;1.83;0.38;;;15.10;99.90;;;;;;6224696;22;20016;-88
2022/10/09 12:58:13;;;;;;;4.65;0.60;;;15.10;99.90;;;;;;6248893;22;20330;-87
2022/10/09 13:00:39;;;;;;;2.47;0.60;;;15.10;99.90;;;;;;6225089;22;20031;-87
2022/10/09 13:03:05;;;;;;;2.22;0.50;;;15.10;99.90;;;;;;6250398;22;20246;-88
2022/10/09 13:05:49;;;;;;;1.75;0.40;;;15.10;99.90;;;;;;6199907;22;20020;-86
2022/10/09 13:08:28;;;;;;;1.98;0.60;;;15.00;99.90;;;;;;6199948;22;20066;-89
2022/10/09 13:10:55;;;;;;;1.80;0.50;;;15.00;99.90;;;;;;6250184;22;20040;-91
2022/10/09 13:13:25;;;;;;;2.05;0.40;;;15.00;99.90;;;;;;6224673;22;20023;-87
2022/10/09 13:16:05;;;;;;;2.58;0.38;;;15.00;99.90;;;;;;6250020;22;20329;-89
2022/10/09 13:18:31;;;;;;;2.45;0.60;;;15.00;99.90;;;;;;6249957;22;20024;-88
2022/10/09 13:21:23;;;;;;;2.70;0.50;;;15.00;99.90;;;;;;6249913;22;20023;-88
2022/10/09 13:23:49;;;;;;;2.28;0.60;;;15.00;99.90;;;;;;6250919;22;20047;-89
2022/10/09 13:26:36;;;;;;;3.03;0.57;;;15.00;99.90;;;;;;6283895;22;20027;-89
2022/10/09 13:29:05;;;;;;;3.30;0.65;;;15.00;99.90;;;;;;6269669;22;20518;-87
2022/10/09 13:31:32;;;;;;;2.38;0.45;;;15.00;99.90;;;;;;6279452;22;20022;-88
2022/10/09 13:34:00;;;;;;;1.70;0.70;;;15.00;99.90;;;;;;6225207;22;20038;-87
2022/10/09 13:36:26;;;;;;;23.88;16.23;;;15.00;99.90;;;;;;6276803;22;20099;-90
2022/10/09 13:38:51;;;;;;;5.60;1.83;;;15.00;99.90;;;;;;6249849;22;20460;-90
2022/10/09 13:41:21;;;;;;;5.07;1.20;;;15.00;99.90;;;;;;6248287;22;20504;-92
2022/10/09 13:43:47;;;;;;;4.63;0.90;;;15.00;99.90;;;;;;6224613;22;20012;-89
2022/10/09 13:46:15;;;;;;;4.50;0.90;;;15.00;99.90;;;;;;6276875;22;20019;-88
2022/10/09 13:48:41;;;;;;;2.70;0.80;;;15.00;99.90;;;;;;6199601;22;20023;-91
2022/10/09 13:51:06;;;;;;;2.65;0.60;;;15.00;99.90;;;;;;6224638;22;20012;-88
2022/10/09 13:53:33;;;;;;;1.42;0.63;;;15.00;99.90;;;;;;6249582;22;20073;-87
2022/10/09 13:55:59;;;;;;;;;;;15.00;99.90;;;;;;6277476;22;20016;-87
2022/10/09 13:58:24;;;;;;;2.95;0.40;;;15.00;99.90;;;;;;6276272;22;20386;-88
2022/10/09 14:00:50;;;;;;;3.30;0.68;;;15.00;99.90;;;;;;6249240;22;20026;-86